Time;durP1;ratioP1;P1;durP2;ratioP2;P2;SDS_P1;SDS_P2;PMS_P1;PMS_P2;Temp;Humidity;BMP_temperature;BMP_pressure;BME280_temperature;BME280_humidity;BME280_pressure;Samples;Min_cycle;Max_cycle;Signal;HPM_P1;HPM_P2
2022/06/18 00:00:24;;;;;;;0.63;0.17;;;20.80;99.90;;;;;;4895147;29;20060;-68
2022/06/18 00:02:50;;;;;;;0.65;0.65;;;20.80;99.90;;;;;;4894549;29;20056;-68
2022/06/18 00:05:18;;;;;;;0.40;0.40;;;20.70;99.90;;;;;;4894541;29;20108;-68
2022/06/18 00:07:48;;;;;;;0.55;0.55;;;20.70;99.90;;;;;;4895060;29;20128;-68
2022/06/18 00:10:17;;;;;;;0.10;0.10;;;20.70;99.90;;;;;;4895081;29;20123;-68
2022/06/18 00:15:31;;;;;;;3.88;0.98;;;20.60;99.90;;;;;;4912385;29;20056;-68
2022/06/18 00:17:57;;;;;;;0.60;0.60;;;20.50;99.90;;;;;;4909553;29;20059;-68
2022/06/18 00:20:25;;;;;;;4.65;0.50;;;20.40;99.90;;;;;;4912899;29;20052;-68
2022/06/18 00:22:53;;;;;;;0.35;0.30;;;20.40;99.90;;;;;;4913917;29;20488;-68
2022/06/18 00:25:25;;;;;;;0.70;0.63;;;20.40;99.90;;;;;;4909619;29;20056;-68
2022/06/18 00:27:51;;;;;;;0.17;0.13;;;20.40;99.90;;;;;;4913078;29;20056;-68
2022/06/18 00:30:24;;;;;;;0.15;0.15;;;20.40;99.90;;;;;;4912420;29;20050;-68
2022/06/18 00:32:49;;;;;;;;;;;20.40;99.90;;;;;;4901556;29;20089;-68
2022/06/18 00:35:15;;;;;;;0.75;0.68;;;20.40;99.90;;;;;;4894395;29;20018;-68
2022/06/18 00:37:42;;;;;;;0.25;0.25;;;20.40;99.90;;;;;;4893677;29;20055;-68
2022/06/18 00:40:17;;;;;;;0.52;0.52;;;20.30;99.90;;;;;;4904130;29;20064;-68
2022/06/18 00:42:44;;;;;;;0.10;0.10;;;20.20;99.90;;;;;;4912740;29;20052;-68
2022/06/18 00:45:15;;;;;;;0.43;0.43;;;20.10;99.90;;;;;;4912311;29;20432;-68
2022/06/18 00:48:08;;;;;;;1.02;0.20;;;20.10;99.90;;;;;;4915165;29;20054;-68
2022/06/18 00:50:55;;;;;;;0.52;0.52;;;20.10;99.90;;;;;;4900600;29;20719;-68
2022/06/18 00:53:26;;;;;;;0.30;0.30;;;20.10;99.90;;;;;;4899201;29;20143;-68
2022/06/18 00:56:04;;;;;;;0.45;0.45;;;20.10;99.90;;;;;;4898116;29;20127;-68
2022/06/18 00:58:34;;;;;;;0.65;0.65;;;20.10;99.90;;;;;;4895886;29;20049;-68
2022/06/18 01:01:01;;;;;;;0.00;0.00;;;20.00;99.90;;;;;;4897123;29;20083;-68
2022/06/18 01:03:35;;;;;;;0.57;0.57;;;20.00;99.90;;;;;;4916001;29;20567;-68
2022/06/18 01:06:23;;;;;;;4.50;1.30;;;19.90;99.90;;;;;;4897060;29;20053;-68
2022/06/18 01:08:58;;;;;;;1.42;0.50;;;19.90;99.90;;;;;;4897400;29;20505;-68
2022/06/18 01:11:28;;;;;;;0.55;0.32;;;19.80;99.90;;;;;;4896390;29;20049;-68
2022/06/18 01:13:54;;;;;;;0.50;0.50;;;19.80;99.90;;;;;;4898337;29;20103;-68
2022/06/18 01:16:21;;;;;;;0.10;0.10;;;19.80;99.90;;;;;;4895713;29;20489;-68
2022/06/18 01:18:48;;;;;;;0.32;0.32;;;19.70;99.90;;;;;;4898325;29;20056;-68
2022/06/18 01:21:35;;;;;;;3.30;1.73;;;19.70;99.90;;;;;;4897393;29;20079;-68
2022/06/18 01:24:10;;;;;;;0.28;0.20;;;19.60;99.90;;;;;;4915710;29;20074;-68
2022/06/18 01:26:36;;;;;;;0.35;0.20;;;19.60;99.90;;;;;;4916605;29;20135;-68
2022/06/18 01:29:02;;;;;;;0.10;0.10;;;19.60;99.90;;;;;;4913256;29;20063;-68
2022/06/18 01:31:29;;;;;;;0.90;0.50;;;19.70;99.90;;;;;;4897164;29;20537;-68
2022/06/18 01:33:54;;;;;;;0.20;0.20;;;19.60;99.90;;;;;;4906304;29;20060;-68
2022/06/18 01:36:20;;;;;;;0.10;0.10;;;19.70;99.90;;;;;;4912722;29;20055;-68
2022/06/18 01:38:47;;;;;;;0.20;0.20;;;19.60;99.90;;;;;;4899247;29;20087;-68
2022/06/18 01:44:45;;;;;;;0.82;0.45;;;19.60;99.90;;;;;;4911638;29;20079;-68
2022/06/18 01:47:20;;;;;;;0.40;0.20;;;19.60;99.90;;;;;;4910402;29;20061;-68
2022/06/18 01:50:01;;;;;;;0.63;0.38;;;19.60;99.90;;;;;;4914729;29;20080;-68
2022/06/18 01:52:33;;;;;;;0.35;0.35;;;19.50;99.90;;;;;;4912563;29;20048;-68
2022/06/18 01:55:03;;;;;;;2.88;1.60;;;19.40;99.90;;;;;;4914293;29;20044;-68
2022/06/18 01:57:38;;;;;;;3.17;2.10;;;19.40;99.90;;;;;;4915502;29;20052;-68
2022/06/18 02:00:14;;;;;;;0.57;0.57;;;19.30;99.90;;;;;;4897851;29;20063;-68
2022/06/18 02:02:43;;;;;;;2.97;0.85;;;19.30;99.90;;;;;;4897032;29;20401;-68
2022/06/18 02:05:10;;;;;;;0.93;0.57;;;19.20;99.90;;;;;;4895944;29;20059;-68
2022/06/18 02:07:36;;;;;;;0.80;0.80;;;19.30;99.90;;;;;;4909871;29;20444;-68
2022/06/18 02:10:06;;;;;;;1.00;0.40;;;19.20;99.90;;;;;;4914250;29;20059;-68
2022/06/18 02:12:36;;;;;;;0.20;0.20;;;19.10;99.90;;;;;;4914988;29;20046;-68
2022/06/18 02:15:12;;;;;;;0.10;0.10;;;19.20;99.90;;;;;;4912406;29;20095;-68
2022/06/18 02:17:40;;;;;;;0.25;0.25;;;19.10;99.90;;;;;;4913260;29;20130;-68
2022/06/18 02:20:15;;;;;;;4.22;2.35;;;19.20;99.90;;;;;;4914351;29;20416;-68
2022/06/18 02:22:44;;;;;;;13.00;0.77;;;19.10;99.90;;;;;;4914109;29;20084;-68
2022/06/18 02:25:12;;;;;;;1.25;0.40;;;19.00;99.90;;;;;;4904991;29;20044;-68
2022/06/18 02:27:39;;;;;;;0.30;0.30;;;18.90;99.90;;;;;;4894699;29;20397;-68
2022/06/18 02:30:11;;;;;;;0.10;0.10;;;19.00;99.90;;;;;;4896209;29;20063;-68
2022/06/18 02:32:51;;;;;;;17.50;0.75;;;18.90;99.90;;;;;;4910093;29;20468;-68
2022/06/18 02:35:17;;;;;;;4.15;2.10;;;18.80;99.90;;;;;;4894921;29;20505;-68
2022/06/18 02:37:43;;;;;;;1.45;1.35;;;18.80;99.90;;;;;;4905527;29;20066;-68
2022/06/18 02:40:23;;;;;;;0.80;0.70;;;18.80;99.90;;;;;;4914193;29;20181;-68
2022/06/18 02:42:51;;;;;;;0.65;0.65;;;18.70;99.90;;;;;;4900056;29;20076;-68
2022/06/18 02:45:19;;;;;;;0.10;0.10;;;18.70;99.90;;;;;;4895036;29;20045;-68
2022/06/18 02:47:45;;;;;;;0.47;0.47;;;18.70;99.90;;;;;;4894928;29;20048;-68
2022/06/18 02:50:14;;;;;;;0.30;0.30;;;18.70;99.90;;;;;;4894445;29;20119;-68
2022/06/18 02:52:49;;;;;;;4.75;0.57;;;18.60;99.90;;;;;;4894715;29;20057;-68
2022/06/18 02:55:36;;;;;;;0.70;0.68;;;18.60;99.90;;;;;;4895007;29;20048;-68
2022/06/18 02:58:21;;;;;;;0.95;0.68;;;18.60;99.90;;;;;;4894598;29;20405;-68
2022/06/18 03:00:53;;;;;;;0.28;0.28;;;18.70;99.90;;;;;;4895935;29;20382;-68
2022/06/18 03:03:20;;;;;;;9.88;1.52;;;18.70;99.90;;;;;;4895203;29;20060;-68
2022/06/18 03:05:46;;;;;;;5.47;2.25;;;18.60;99.90;;;;;;4894238;29;20045;-68
2022/06/18 03:08:12;;;;;;;0.25;0.25;;;18.60;99.90;;;;;;4894648;29;20048;-68
2022/06/18 03:13:22;;;;;;;0.80;0.80;;;18.60;99.90;;;;;;4895362;29;20143;-68
2022/06/18 03:15:51;;;;;;;0.30;0.28;;;18.50;99.90;;;;;;4910150;29;20060;-68
2022/06/18 03:18:19;;;;;;;0.30;0.30;;;18.50;99.90;;;;;;4914274;29;20048;-68
2022/06/18 03:21:00;;;;;;;0.10;0.10;;;18.50;99.90;;;;;;4913733;29;20055;-68
2022/06/18 03:23:26;;;;;;;1.00;0.68;;;18.40;99.90;;;;;;4897320;29;20048;-68
2022/06/18 03:25:53;;;;;;;0.20;0.20;;;18.40;99.90;;;;;;4895719;29;20051;-68
2022/06/18 03:28:20;;;;;;;1.10;0.73;;;18.40;99.90;;;;;;4895071;29;20501;-68
2022/06/18 03:30:46;;;;;;;0.00;0.00;;;18.40;99.90;;;;;;4894821;29;20048;-68
2022/06/18 03:33:12;;;;;;;4.47;1.55;;;18.30;99.90;;;;;;4893772;29;20391;-68
2022/06/18 03:35:39;;;;;;;1.00;0.90;;;18.30;99.90;;;;;;4895298;29;20062;-69
2022/06/18 03:38:05;;;;;;;3.72;1.38;;;18.30;99.90;;;;;;4893116;29;20059;-68
2022/06/18 03:40:30;;;;;;;1.00;0.85;;;18.20;99.90;;;;;;4910020;29;20048;-68
2022/06/18 03:42:56;;;;;;;1.08;1.08;;;18.20;99.90;;;;;;4898226;29;20659;-69
2022/06/18 03:45:22;;;;;;;0.10;0.10;;;18.30;99.90;;;;;;4894227;29;20507;-68
2022/06/18 03:47:48;;;;;;;0.65;0.65;;;18.30;99.90;;;;;;4894420;29;20083;-68
2022/06/18 03:50:18;;;;;;;0.50;0.45;;;18.30;99.90;;;;;;4892059;29;20273;-68
2022/06/18 03:52:44;;;;;;;0.13;0.13;;;18.20;99.90;;;;;;4894927;29;20048;-68
2022/06/18 03:55:13;;;;;;;0.32;0.30;;;18.20;99.90;;;;;;4894892;29;20108;-68
2022/06/18 03:57:39;;;;;;;0.50;0.47;;;18.20;99.90;;;;;;4893790;29;20055;-68
2022/06/18 04:00:16;;;;;;;0.20;0.20;;;18.30;99.90;;;;;;4908909;29;20064;-68
2022/06/18 04:02:42;;;;;;;2.95;0.57;;;18.20;99.90;;;;;;4913942;29;20500;-68
2022/06/18 04:05:08;;;;;;;1.85;0.85;;;18.20;99.90;;;;;;4913075;29;20044;-68
2022/06/18 04:07:34;;;;;;;0.90;0.88;;;18.20;99.90;;;;;;4911772;29;20040;-68
2022/06/18 04:10:01;;;;;;;0.10;0.10;;;18.20;99.90;;;;;;4913566;29;20048;-68
2022/06/18 04:12:29;;;;;;;0.55;0.55;;;18.20;99.90;;;;;;4913233;29;20048;-69
2022/06/18 04:14:55;;;;;;;1.95;1.85;;;18.20;99.90;;;;;;4908653;29;20108;-68
2022/06/18 04:17:21;;;;;;;8.40;1.73;;;18.20;99.90;;;;;;4893365;29;20477;-68
2022/06/18 04:19:47;;;;;;;0.38;0.32;;;18.30;99.90;;;;;;4894493;29;20052;-69
2022/06/18 04:22:13;;;;;;;0.85;0.85;;;18.30;99.90;;;;;;4896189;29;20048;-68
2022/06/18 04:24:38;;;;;;;0.68;0.55;;;18.30;99.90;;;;;;4899818;29;20140;-68
2022/06/18 04:27:04;;;;;;;0.70;0.70;;;18.40;99.90;;;;;;4896244;29;20139;-68
2022/06/18 04:29:31;;;;;;;0.30;0.20;;;18.40;99.90;;;;;;4897611;29;20044;-68
2022/06/18 04:31:59;;;;;;;0.52;0.35;;;18.40;99.90;;;;;;4910816;29;20044;-68
2022/06/18 04:34:25;;;;;;;1.48;0.80;;;18.40;99.90;;;;;;4915080;29;20068;-68
2022/06/18 04:36:50;;;;;;;0.13;0.13;;;18.40;99.90;;;;;;4916178;29;20056;-68
2022/06/18 04:39:16;;;;;;;2.08;1.45;;;18.50;99.90;;;;;;4912092;29;20040;-68
2022/06/18 04:41:42;;;;;;;0.80;0.40;;;18.50;99.90;;;;;;4900027;29;20188;-68
2022/06/18 04:44:08;;;;;;;1.02;0.70;;;18.60;99.90;;;;;;4898481;29;20048;-68
2022/06/18 04:46:33;;;;;;;0.10;0.10;;;18.50;99.90;;;;;;4896427;29;20052;-68
2022/06/18 04:48:59;;;;;;;0.90;0.30;;;18.50;99.90;;;;;;4898489;29;20052;-68
2022/06/18 04:51:25;;;;;;;0.50;0.43;;;18.50;99.90;;;;;;4898740;29;20151;-68
2022/06/18 04:53:50;;;;;;;0.10;0.10;;;18.60;99.90;;;;;;4897961;29;20075;-68
2022/06/18 04:56:16;;;;;;;4.80;1.00;;;18.60;99.90;;;;;;4898144;29;20068;-68
2022/06/18 04:58:42;;;;;;;1.00;0.32;;;18.70;99.90;;;;;;4899906;29;20044;-68
2022/06/18 05:01:12;;;;;;;0.28;0.28;;;18.70;99.90;;;;;;4916130;29;20840;-68
2022/06/18 05:03:38;;;;;;;0.10;0.10;;;18.70;99.90;;;;;;4917434;29;20047;-69
2022/06/18 05:06:03;;;;;;;8.85;1.13;;;18.80;99.90;;;;;;4915596;29;20146;-68
2022/06/18 05:08:29;;;;;;;5.15;1.65;;;18.80;99.90;;;;;;4911842;29;20044;-68
2022/06/18 05:10:54;;;;;;;0.50;0.50;;;18.80;99.90;;;;;;4915793;29;20052;-68
2022/06/18 05:13:20;;;;;;;0.90;0.90;;;18.90;99.90;;;;;;4916838;29;20037;-69
2022/06/18 05:15:49;;;;;;;0.00;0.00;;;18.90;99.90;;;;;;4897982;29;20091;-68
2022/06/18 05:18:16;;;;;;;0.30;0.30;;;18.90;99.90;;;;;;4898035;29;20048;-69
2022/06/18 05:20:43;;;;;;;0.10;0.10;;;19.00;99.90;;;;;;4896734;29;20438;-68
2022/06/18 05:23:13;;;;;;;0.73;0.73;;;19.00;99.90;;;;;;4895863;29;20051;-69
2022/06/18 05:25:39;;;;;;;5.93;0.30;;;19.10;99.90;;;;;;4898639;29;20100;-69
2022/06/18 05:28:04;;;;;;;2.08;0.40;;;19.20;99.90;;;;;;4896187;29;20056;-69
2022/06/18 05:30:30;;;;;;;0.20;0.20;;;19.20;99.90;;;;;;4895605;29;20052;-69
2022/06/18 05:32:56;;;;;;;0.10;0.10;;;19.20;99.90;;;;;;4896991;29;20067;-69
2022/06/18 05:35:21;;;;;;;0.20;0.20;;;19.20;99.90;;;;;;4895954;29;20059;-69
2022/06/18 05:37:47;;;;;;;0.10;0.10;;;19.30;99.90;;;;;;4895910;29;20057;-69
2022/06/18 05:40:14;;;;;;;2.63;0.20;;;19.30;99.90;;;;;;4900463;29;20078;-69
2022/06/18 05:42:39;;;;;;;0.20;0.20;;;19.30;99.90;;;;;;4896590;29;20057;-69
2022/06/18 05:45:06;;;;;;;0.30;0.30;;;19.30;99.90;;;;;;4897220;29;20056;-69
2022/06/18 05:47:32;;;;;;;0.10;0.10;;;19.30;99.90;;;;;;4896079;29;20071;-69
2022/06/18 05:49:59;;;;;;;1.35;0.75;;;19.30;99.90;;;;;;4895352;29;20080;-69
2022/06/18 05:52:26;;;;;;;0.00;0.00;;;19.30;99.90;;;;;;4895645;29;20060;-69
2022/06/18 05:54:52;;;;;;;0.13;0.13;;;19.30;99.90;;;;;;4894992;29;20100;-68
2022/06/18 05:57:19;;;;;;;0.52;0.15;;;19.30;99.90;;;;;;4912405;29;20089;-69
2022/06/18 05:59:45;;;;;;;0.10;0.10;;;19.40;99.90;;;;;;4914870;29;20079;-68
2022/06/18 06:02:13;;;;;;;0.98;0.35;;;19.40;99.90;;;;;;4914047;29;20048;-69
2022/06/18 06:04:39;;;;;;;0.00;0.00;;;19.40;99.90;;;;;;4903128;29;20057;-69
2022/06/18 06:07:06;;;;;;;0.57;0.10;;;19.50;99.90;;;;;;4896847;29;20048;-69
2022/06/18 06:12:16;;;;;;;0.08;0.08;;;19.50;99.90;;;;;;4895736;29;20041;-69
2022/06/18 06:14:42;;;;;;;0.28;0.28;;;19.50;99.90;;;;;;4902424;29;20806;-69
2022/06/18 06:17:20;;;;;;;0.00;0.00;;;19.50;99.90;;;;;;4896132;29;20461;-69
2022/06/18 06:19:47;;;;;;;0.35;0.35;;;19.50;99.90;;;;;;4897499;29;20079;-69
2022/06/18 06:22:12;;;;;;;0.20;0.20;;;19.60;99.90;;;;;;4894980;29;20061;-69
2022/06/18 06:24:38;;;;;;;0.20;0.20;;;19.60;99.90;;;;;;4894229;29;20049;-69
2022/06/18 06:27:04;;;;;;;0.40;0.40;;;19.70;99.90;;;;;;4895316;29;20071;-69
2022/06/18 06:29:29;;;;;;;0.00;0.00;;;19.70;99.90;;;;;;4897623;29;20044;-69
2022/06/18 06:31:55;;;;;;;0.00;0.00;;;19.80;99.90;;;;;;4893927;29;20108;-69
2022/06/18 06:34:20;;;;;;;0.00;0.00;;;19.90;99.90;;;;;;4894340;29;20067;-69
2022/06/18 06:36:46;;;;;;;0.00;0.00;;;19.90;99.90;;;;;;4896782;29;20477;-69
2022/06/18 06:39:11;;;;;;;0.00;0.00;;;19.90;99.90;;;;;;4898940;29;20048;-69
2022/06/18 06:41:37;;;;;;;0.00;0.00;;;19.90;99.90;;;;;;4909673;29;20055;-69
2022/06/18 06:44:03;;;;;;;0.10;0.10;;;20.00;99.90;;;;;;4913842;29;20048;-69
2022/06/18 06:46:29;;;;;;;0.22;0.10;;;19.90;99.90;;;;;;4898779;29;20116;-69
2022/06/18 06:48:54;;;;;;;0.00;0.00;;;20.00;99.90;;;;;;4896117;29;20060;-69
2022/06/18 06:51:23;;;;;;;0.75;0.32;;;20.00;99.90;;;;;;4894411;29;20052;-69
2022/06/18 06:53:49;;;;;;;0.17;0.17;;;20.00;99.90;;;;;;4894656;29;20052;-68
2022/06/18 06:59:03;;;;;;;0.03;0.03;;;20.00;99.90;;;;;;4914340;29;20208;-69
2022/06/18 07:01:29;;;;;;;0.00;0.00;;;20.10;99.90;;;;;;4910193;29;20058;-69
2022/06/18 07:03:55;;;;;;;0.00;0.00;;;20.20;99.90;;;;;;4914397;29;20107;-69
2022/06/18 07:06:21;;;;;;;0.00;0.00;;;20.20;99.90;;;;;;4914380;29;20492;-69
2022/06/18 07:08:47;;;;;;;0.00;0.00;;;20.20;99.90;;;;;;4914479;29;20091;-69
2022/06/18 07:11:13;;;;;;;0.00;0.00;;;20.30;99.90;;;;;;4911013;29;20528;-69
2022/06/18 07:13:39;;;;;;;0.00;0.00;;;20.40;99.90;;;;;;4897102;29;20063;-69
2022/06/18 07:16:05;;;;;;;0.00;0.00;;;20.40;99.90;;;;;;4897522;29;20056;-69
2022/06/18 07:18:35;;;;;;;0.10;0.10;;;20.40;99.90;;;;;;4893503;29;20044;-69
2022/06/18 07:21:02;;;;;;;0.00;0.00;;;20.40;99.90;;;;;;4894715;29;20161;-69
2022/06/18 07:23:27;;;;;;;0.00;0.00;;;20.50;99.90;;;;;;4896627;29;20040;-68
2022/06/18 07:25:53;;;;;;;0.00;0.00;;;20.50;99.90;;;;;;4894163;29;20060;-69
2022/06/18 07:28:19;;;;;;;0.00;0.00;;;20.60;99.90;;;;;;4893300;29;20506;-69
2022/06/18 07:30:46;;;;;;;0.00;0.00;;;20.70;99.90;;;;;;4895533;29;20048;-69
2022/06/18 07:33:19;;;;;;;0.00;0.00;;;20.60;99.90;;;;;;4894251;29;20068;-69
2022/06/18 07:35:44;;;;;;;0.00;0.00;;;20.50;99.90;;;;;;4896780;29;20044;-69
2022/06/18 07:38:10;;;;;;;0.65;0.47;;;20.50;99.90;;;;;;4893737;29;20135;-69
2022/06/18 07:40:49;;;;;;;0.20;0.10;;;20.50;99.90;;;;;;4909308;29;20048;-69
2022/06/18 07:43:20;;;;;;;0.10;0.10;;;20.50;99.90;;;;;;4903391;29;20055;-69
2022/06/18 07:45:46;;;;;;;0.25;0.25;;;20.60;99.90;;;;;;4895453;29;20091;-69
2022/06/18 07:48:13;;;;;;;0.00;0.00;;;20.70;99.90;;;;;;4894967;29;20059;-69
2022/06/18 07:50:43;;;;;;;0.00;0.00;;;20.70;99.90;;;;;;4895514;29;20056;-69
2022/06/18 07:53:17;;;;;;;1.38;0.38;;;20.70;99.90;;;;;;4893722;29;20052;-68
2022/06/18 07:55:43;;;;;;;0.00;0.00;;;20.70;99.90;;;;;;4893581;29;20127;-69
2022/06/18 07:58:08;;;;;;;0.00;0.00;;;20.70;99.90;;;;;;4894243;29;20123;-68
2022/06/18 08:00:35;;;;;;;0.00;0.00;;;20.60;99.90;;;;;;4895129;29;20192;-69
2022/06/18 08:03:04;;;;;;;0.00;0.00;;;20.50;99.90;;;;;;4896035;29;20120;-69
2022/06/18 08:05:30;;;;;;;0.00;0.00;;;20.60;99.90;;;;;;4895425;29;20392;-69
2022/06/18 08:07:56;;;;;;;1.75;0.20;;;20.70;99.90;;;;;;4913572;29;20044;-69
2022/06/18 08:10:21;;;;;;;0.05;0.05;;;20.80;99.90;;;;;;4909448;29;20044;-69
2022/06/18 08:12:47;;;;;;;0.00;0.00;;;20.90;99.90;;;;;;4911740;29;20396;-69
2022/06/18 08:15:13;;;;;;;0.00;0.00;;;20.90;99.90;;;;;;4910120;29;20123;-69
2022/06/18 08:17:39;;;;;;;0.15;0.15;;;20.80;99.90;;;;;;4913086;29;20051;-69
2022/06/18 08:20:06;;;;;;;0.00;0.00;;;20.70;99.90;;;;;;4913855;29;20052;-69
2022/06/18 08:22:33;;;;;;;0.00;0.00;;;20.80;99.90;;;;;;4908480;29;20131;-69
2022/06/18 08:24:59;;;;;;;0.00;0.00;;;20.80;99.90;;;;;;4911082;29;20067;-69
2022/06/18 08:27:25;;;;;;;0.03;0.03;;;20.80;99.90;;;;;;4913858;29;20116;-69
2022/06/18 08:29:51;;;;;;;0.00;0.00;;;20.90;99.90;;;;;;4909202;29;20059;-69
2022/06/18 08:32:16;;;;;;;0.35;0.35;;;20.90;99.90;;;;;;4913072;29;20162;-69
2022/06/18 08:34:42;;;;;;;0.00;0.00;;;20.80;99.90;;;;;;4903121;29;20550;-69
2022/06/18 08:37:08;;;;;;;0.00;0.00;;;20.80;99.90;;;;;;4894797;29;20084;-69
2022/06/18 08:39:35;;;;;;;0.00;0.00;;;20.90;99.90;;;;;;4893851;29;20155;-69
2022/06/18 08:42:39;;;;;;;0.00;0.00;;;20.90;99.90;;;;;;4894451;29;20052;-69
2022/06/18 08:45:05;;;;;;;;;;;21.20;99.90;;;;;;4895265;29;20057;-69
2022/06/18 08:48:00;;;;;;;0.00;0.00;;;21.30;99.90;;;;;;4894065;29;20284;-69
2022/06/18 08:50:50;;;;;;;0.00;0.00;;;21.20;99.90;;;;;;4894703;29;20048;-69
2022/06/18 08:54:09;;;;;;;0.25;0.25;;;21.30;99.90;;;;;;4911671;29;20107;-69
2022/06/18 08:56:56;;;;;;;0.00;0.00;;;21.30;99.90;;;;;;4892386;29;20052;-69
2022/06/18 08:59:45;;;;;;;0.30;0.30;;;21.40;99.90;;;;;;4906999;29;20535;-69
2022/06/18 09:02:27;;;;;;;0.00;0.00;;;21.40;99.90;;;;;;4912376;29;20151;-69
2022/06/18 09:05:21;;;;;;;0.00;0.00;;;21.40;99.90;;;;;;4910058;29;20110;-69
2022/06/18 09:08:20;;;;;;;0.10;0.10;;;21.50;99.90;;;;;;4904192;29;20139;-69
2022/06/18 09:11:01;;;;;;;0.05;0.05;;;21.50;99.90;;;;;;4899882;29;20041;-69
2022/06/18 09:13:34;;;;;;;0.00;0.00;;;21.60;99.90;;;;;;4896688;29;20056;-69
2022/06/18 09:16:04;;;;;;;0.00;0.00;;;21.50;99.90;;;;;;4915829;29;20580;-69
2022/06/18 09:18:36;;;;;;;0.00;0.00;;;21.60;99.90;;;;;;4913322;29;20062;-69
2022/06/18 09:21:08;;;;;;;0.00;0.00;;;21.70;99.90;;;;;;4914333;29;20505;-69
2022/06/18 09:23:46;;;;;;;0.00;0.00;;;21.90;99.90;;;;;;4916730;29;20087;-69
2022/06/18 09:26:25;;;;;;;0.00;0.00;;;21.80;99.90;;;;;;4916735;29;20055;-69
2022/06/18 09:29:16;;;;;;;0.00;0.00;;;21.90;99.90;;;;;;4908703;29;20048;-69
2022/06/18 09:31:53;;;;;;;0.00;0.00;;;21.80;99.90;;;;;;4897334;29;20052;-69
2022/06/18 09:34:27;;;;;;;0.00;0.00;;;21.80;99.90;;;;;;4906567;29;20064;-69
2022/06/18 09:36:58;;;;;;;0.10;0.10;;;22.00;99.90;;;;;;4914493;29;20056;-69
2022/06/18 09:39:41;;;;;;;0.08;0.08;;;22.10;99.90;;;;;;4903186;29;20048;-69
2022/06/18 09:42:14;;;;;;;0.00;0.00;;;22.20;99.90;;;;;;4896740;29;20055;-69
2022/06/18 09:45:09;;;;;;;0.03;0.03;;;22.20;99.90;;;;;;4897392;29;20044;-69
2022/06/18 09:47:37;;;;;;;0.00;0.00;;;22.50;99.90;;;;;;4896834;29;20560;-69
2022/06/18 09:50:11;;;;;;;0.00;0.00;;;22.90;99.90;;;;;;4896387;29;20392;-69
2022/06/18 09:52:39;;;;;;;1.00;0.22;;;23.00;99.90;;;;;;4899263;29;20056;-69
2022/06/18 09:55:14;;;;;;;0.05;0.05;;;23.30;99.90;;;;;;4915754;29;20052;-70
2022/06/18 09:57:43;;;;;;;0.00;0.00;;;23.50;99.90;;;;;;4912013;29;20484;-69
2022/06/18 10:00:21;;;;;;;0.00;0.00;;;23.70;99.90;;;;;;4896559;29;20048;-69
2022/06/18 10:03:01;;;;;;;0.00;0.00;;;23.90;99.90;;;;;;4899677;29;20056;-69
2022/06/18 10:08:37;;;;;;;0.00;0.00;;;23.70;99.90;;;;;;4895457;29;20056;-69
2022/06/18 10:11:09;;;;;;;0.00;0.00;;;23.90;99.90;;;;;;4906044;29;20143;-69
2022/06/18 10:13:43;;;;;;;0.00;0.00;;;24.00;99.90;;;;;;4911609;29;20508;-69
2022/06/18 10:16:22;;;;;;;0.10;0.10;;;24.10;99.90;;;;;;4914236;29;20052;-69
2022/06/18 10:19:27;;;;;;;0.00;0.00;;;24.00;99.90;;;;;;4909149;29;20083;-69
2022/06/18 10:21:56;;;;;;;0.25;0.25;;;24.10;99.90;;;;;;4888643;29;20086;-68
2022/06/18 10:24:34;;;;;;;0.00;0.00;;;24.10;99.90;;;;;;4910097;29;20079;-69
2022/06/18 10:27:07;;;;;;;0.63;0.63;;;24.30;99.90;;;;;;4896474;29;20393;-69
2022/06/18 10:29:49;;;;;;;;;;;24.30;99.90;;;;;;4899073;29;20086;-69
2022/06/18 10:32:26;;;;;;;0.55;0.43;;;24.30;99.90;;;;;;4914414;29;20339;-69
2022/06/18 10:35:04;;;;;;;0.15;0.15;;;24.40;99.90;;;;;;4913992;29;20071;-69
2022/06/18 10:37:51;;;;;;;0.00;0.00;;;24.50;99.90;;;;;;4915534;29;20445;-69
2022/06/18 10:40:29;;;;;;;0.08;0.08;;;24.60;99.90;;;;;;4900523;29;20059;-69
2022/06/18 10:43:06;;;;;;;0.10;0.10;;;24.60;99.90;;;;;;4896421;29;20044;-70
2022/06/18 10:45:38;;;;;;;0.00;0.00;;;24.50;99.90;;;;;;4894515;29;20056;-69
2022/06/18 10:48:11;;;;;;;0.00;0.00;;;24.60;99.90;;;;;;4903400;29;20052;-69
2022/06/18 10:50:49;;;;;;;0.10;0.10;;;24.50;99.90;;;;;;4913696;29;20075;-70
2022/06/18 10:53:17;;;;;;;0.00;0.00;;;24.70;99.90;;;;;;4914006;29;20554;-69
2022/06/18 10:55:44;;;;;;;0.00;0.00;;;24.50;99.90;;;;;;4914902;29;20048;-70
2022/06/18 10:58:13;;;;;;;0.00;0.00;;;24.60;99.90;;;;;;4899644;29;20049;-69
2022/06/18 11:00:40;;;;;;;0.57;0.57;;;24.50;99.90;;;;;;4895007;29;20493;-71
2022/06/18 11:03:22;;;;;;;0.00;0.00;;;24.60;99.90;;;;;;4894412;29;20052;-69
2022/06/18 11:05:49;;;;;;;0.00;0.00;;;24.70;99.90;;;;;;4894616;29;20056;-70
2022/06/18 11:08:35;;;;;;;0.20;0.20;;;24.80;99.90;;;;;;4907272;29;20095;-70
2022/06/18 11:11:05;;;;;;;1.08;0.22;;;24.70;99.90;;;;;;4914390;29;20091;-70
2022/06/18 11:13:35;;;;;;;0.00;0.00;;;24.80;99.90;;;;;;4908971;29;20040;-69
2022/06/18 11:16:17;;;;;;;0.63;0.63;;;24.90;99.90;;;;;;4896940;29;20096;-69
2022/06/18 11:19:02;;;;;;;0.00;0.00;;;24.80;99.90;;;;;;4895833;29;20052;-70
2022/06/18 11:21:37;;;;;;;1.67;1.55;;;24.90;99.90;;;;;;4909685;29;20139;-70
2022/06/18 11:24:30;;;;;;;0.00;0.00;;;25.00;99.90;;;;;;4914423;29;20123;-69
2022/06/18 11:26:59;;;;;;;0.00;0.00;;;25.20;99.90;;;;;;4894082;29;20115;-70
2022/06/18 11:29:41;;;;;;;0.00;0.00;;;25.30;99.90;;;;;;4912064;29;20440;-70
2022/06/18 11:32:15;;;;;;;0.00;0.00;;;25.30;99.90;;;;;;4908579;29;20051;-70
2022/06/18 11:34:45;;;;;;;0.00;0.00;;;25.30;99.90;;;;;;4910070;29;20147;-69
2022/06/18 11:37:19;;;;;;;0.00;0.00;;;25.30;99.90;;;;;;4911163;29;20188;-70
2022/06/18 11:39:53;;;;;;;0.70;0.57;;;25.40;99.90;;;;;;4897393;29;20115;-69
2022/06/18 11:42:26;;;;;;;0.00;0.00;;;25.30;99.90;;;;;;4894407;29;20093;-70
2022/06/18 11:45:10;;;;;;;0.17;0.15;;;25.20;99.90;;;;;;4895682;29;20052;-70
2022/06/18 11:47:45;;;;;;;0.00;0.00;;;25.50;99.90;;;;;;4907002;29;20408;-69
2022/06/18 11:50:33;;;;;;;0.00;0.00;;;25.60;99.90;;;;;;4913241;29;20055;-70
2022/06/18 11:53:20;;;;;;;0.00;0.00;;;25.50;99.90;;;;;;4913655;29;20056;-69
2022/06/18 11:55:54;;;;;;;0.75;0.20;;;25.50;99.90;;;;;;4907265;29;20079;-69
2022/06/18 11:58:44;;;;;;;0.00;0.00;;;25.50;99.90;;;;;;4912456;29;20091;-70
2022/06/18 12:01:31;;;;;;;0.20;0.20;;;25.30;99.90;;;;;;4909788;29;20064;-69
2022/06/18 12:04:02;;;;;;;0.00;0.00;;;25.60;99.90;;;;;;4913097;29;20191;-69
2022/06/18 12:06:42;;;;;;;0.00;0.00;;;25.50;99.90;;;;;;4912456;29;20052;-70
2022/06/18 12:09:12;;;;;;;0.15;0.15;;;25.30;99.90;;;;;;4913664;29;20049;-69
2022/06/18 12:11:46;;;;;;;0.00;0.00;;;25.30;99.90;;;;;;4900029;29;20117;-69
2022/06/18 12:14:40;;;;;;;0.00;0.00;;;25.60;99.90;;;;;;4899663;29;20554;-69
2022/06/18 12:17:32;;;;;;;0.25;0.20;;;25.30;99.90;;;;;;4907753;29;20076;-69
2022/06/18 12:20:32;;;;;;;0.08;0.05;;;24.90;99.90;;;;;;4890930;29;20152;-70
2022/06/18 12:23:25;;;;;;;0.00;0.00;;;25.20;99.90;;;;;;4894247;29;20108;-70
2022/06/18 12:25:58;;;;;;;0.00;0.00;;;25.10;99.90;;;;;;4902219;29;20068;-69
2022/06/18 12:28:41;;;;;;;0.00;0.00;;;25.00;99.90;;;;;;4908762;29;20059;-70
2022/06/18 12:31:11;;;;;;;0.68;0.50;;;24.90;99.90;;;;;;4912490;29;20108;-69
2022/06/18 12:33:42;;;;;;;0.00;0.00;;;25.00;99.90;;;;;;4913107;29;20523;-69
2022/06/18 12:36:29;;;;;;;0.00;0.00;;;25.00;99.90;;;;;;4910570;29;20060;-69
2022/06/18 12:39:21;;;;;;;0.00;0.00;;;25.00;99.90;;;;;;4911428;29;20051;-70
2022/06/18 12:41:57;;;;;;;0.85;0.85;;;25.10;99.90;;;;;;4913088;29;20111;-70
2022/06/18 12:44:32;;;;;;;0.00;0.00;;;25.30;99.90;;;;;;4900428;29;20064;-70
2022/06/18 12:47:33;;;;;;;0.00;0.00;;;25.20;99.90;;;;;;4897701;29;20136;-69
2022/06/18 12:50:21;;;;;;;0.20;0.20;;;25.40;99.90;;;;;;4916439;29;20103;-69
2022/06/18 12:52:49;;;;;;;0.00;0.00;;;25.50;99.90;;;;;;4916670;29;20079;-69
2022/06/18 12:55:24;;;;;;;13.63;1.00;;;25.00;99.90;;;;;;4912107;29;20066;-69
2022/06/18 12:58:07;;;;;;;0.00;0.00;;;25.00;99.90;;;;;;4916835;29;20444;-70
2022/06/18 13:00:47;;;;;;;2.65;1.20;;;25.10;99.90;;;;;;4902340;29;20052;-70
2022/06/18 13:03:51;;;;;;;0.00;0.00;;;24.80;99.90;;;;;;4897584;29;20060;-69
2022/06/18 13:06:27;;;;;;;0.45;0.45;;;24.80;99.90;;;;;;4902064;29;20052;-69
2022/06/18 13:09:09;;;;;;;2.08;0.85;;;24.40;99.90;;;;;;4898094;29;20413;-69
2022/06/18 13:11:42;;;;;;;0.08;0.08;;;24.00;99.90;;;;;;4896315;29;20147;-69
2022/06/18 13:14:17;;;;;;;19.05;1.35;;;23.70;99.90;;;;;;4900051;29;20048;-69
2022/06/18 13:16:48;;;;;;;0.00;0.00;;;23.50;99.90;;;;;;4900046;29;20147;-69
2022/06/18 13:19:20;;;;;;;0.88;0.43;;;23.70;99.90;;;;;;4896624;29;20135;-70
2022/06/18 13:21:46;;;;;;;0.65;0.32;;;24.40;99.90;;;;;;4897078;29;20139;-70
2022/06/18 13:30:31;;;;;;;0.00;0.00;;;24.70;99.90;;;;;;4914288;29;20059;-69
2022/06/18 13:33:05;;;;;;;0.38;0.38;;;24.60;99.90;;;;;;4916221;29;20127;-69
2022/06/18 13:35:53;;;;;;;0.20;0.20;;;24.60;99.90;;;;;;4909648;29;20052;-69